Cape Willoughby, Australia
Current Conditions -  °F | °C
As of 6:00 AM on Tuesday 25 Nov 2014 (Local Time) from YPAD Reporting Station
Rain Showers Rain Showers  
Wind Chill: 57°   Ceiling: 5500
Heat Index: 57°   Visibility: 6mi
Dew Point: 50°   Wind: 7mph
Humidity: 77%   Direction: 50°NE
Pressure: 30.15"   Gusts: NA
Location:  35.84°S, 138.13°E
Report Text: YPAD 242000Z 05006KT 9999 -SHRA FEW027 SCT038 BKN055 14/10 Q1021 NOSIG
Loading
Personal Weather Stations






























Interactive Weather Map New forecast layout! Learn more

10-Day Weather Forecast

Advertisements
Track Severe Weather on mobile